London Heathrow Airport

EGLL · 英格兰, 英国

罗盘
风向 的 风向 240° 倫敦希斯路機場 9L/27R
风: 11 kt, 4 beaufort

10 kt

6 kt
改变
0 ft 1.000 2.000 3.000 4.000 5.000
Cloud Cloud
FEW 3.000
Cloud Cloud Cloud Cloud
SCT 3.900
METAR EGLL 231250Z AUTO 24011KT 9999 FEW030 SCT039 09/02 Q0987 NOSIG

METAR 倫敦希斯路機場 - EGLL/LHR

倫敦希斯路機場是,英国中的大型机场。 该机场位于纬度51,47128和经度-0,46088。 该机场有2条跑道: 9L/27R 和 9R/27L. 本场的ICAO机场代码为EGLL。 该机场的IATA代码为LHR。 机场在London FIR中。

该航空气象观测是针对倫敦希斯路機場在2024年2月23日 12:50, 当地时间进行的。

机场观察

风向为240°,速度为11 kt。

可见度为10 km 或者更多。

有几云在3.000 ft的高度 和 疏云,零星散落的云朵在3.900 ft的高度。 没有观察到天花板。

温度为9 °C,阵风为4 °C。 露点为2 °C,相对湿度为62%。 海平面上的气压为987 hPa (QNH)。

白天

今天,太阳从07:00升起,在17:30降落。 这适用于倫敦希斯路機場,世界夏令时可能有所不同。 当地时间与世界标准时间之间的时差为+0 小时。 当前,没有夏令时有效。

公司介绍

我们没有关于这个机场的公司信息。

体会

到Vliegles.nl去找飞行课程,跳伞和其他飞行体验。 浏览页面,了解倫敦希斯路機場附近所有可用的活动。 你也可以使用搜索功能来寻找你所在地附近的特定飞行课程、跳伞或其他飞行体验。

请勿用于飞行规划
机场可能关闭或需要事先获得许可。 真正的航向和跑道末端的坐标可能是一个估计值。 磁性航向是使用WMM2020模型从真实航向计算出来的。

跑道

Id 标题 侧风 逆风 侧风 %
9L/27R 090°-270° 6 kt 10 kt 50 %
9R/27L 090°-270° 6 kt 10 kt 50 %

逆风成分最大的方向会被突出显示,并用于横风计算。 这并不一定意味着这个方向在使用。

乌云

3.000 ft FEW 几云
3.900 ft SCT 疏云,零星散落的云朵

温度 & 天气

温度 9 °C
露点 2 °C
相对湿度 62%
风寒 4 °C
Kp-index 0 (0-9)

白天

日出
07:00
中午
12:15
日落
17:30 (4:11)

小工具

你想在你的网站上有一个关于倫敦希斯路機場的当前航空天气(METAR)的小部件吗?

显示HTML代码
?>